sensor_id;sensor_type;location;lat;lon;timestamp;temperature;humidity
364;DHT22;173;48.718;9.274;2022-08-19T00:01:58;22.60;78.70
364;DHT22;173;48.718;9.274;2022-08-19T00:04:32;22.70;79.00
364;DHT22;173;48.718;9.274;2022-08-19T00:07:06;22.70;79.20
364;DHT22;173;48.718;9.274;2022-08-19T00:09:38;22.50;80.40
364;DHT22;173;48.718;9.274;2022-08-19T00:12:14;22.40;81.40
364;DHT22;173;48.718;9.274;2022-08-19T00:14:44;22.40;82.60
364;DHT22;173;48.718;9.274;2022-08-19T00:17:15;22.30;82.60
364;DHT22;173;48.718;9.274;2022-08-19T00:19:45;22.30;82.80
364;DHT22;173;48.718;9.274;2022-08-19T00:22:17;22.30;83.80
364;DHT22;173;48.718;9.274;2022-08-19T00:24:49;22.30;84.50
364;DHT22;173;48.718;9.274;2022-08-19T00:27:21;22.30;84.30
364;DHT22;173;48.718;9.274;2022-08-19T00:29:53;22.30;83.50
364;DHT22;173;48.718;9.274;2022-08-19T00:32:26;22.10;82.80
364;DHT22;173;48.718;9.274;2022-08-19T00:35:00;22.00;84.70
364;DHT22;173;48.718;9.274;2022-08-19T00:37:36;22.00;85.00
364;DHT22;173;48.718;9.274;2022-08-19T00:40:11;22.10;84.40
364;DHT22;173;48.718;9.274;2022-08-19T00:42:43;22.10;85.00
364;DHT22;173;48.718;9.274;2022-08-19T00:45:18;22.10;85.50
364;DHT22;173;48.718;9.274;2022-08-19T00:47:51;22.10;85.00
364;DHT22;173;48.718;9.274;2022-08-19T00:50:26;22.10;85.40
364;DHT22;173;48.718;9.274;2022-08-19T00:52:58;22.10;85.30
364;DHT22;173;48.718;9.274;2022-08-19T00:55:31;22.10;85.40
364;DHT22;173;48.718;9.274;2022-08-19T00:58:06;22.00;85.40
364;DHT22;173;48.718;9.274;2022-08-19T01:00:40;21.90;84.10
364;DHT22;173;48.718;9.274;2022-08-19T01:03:15;21.70;85.50
364;DHT22;173;48.718;9.274;2022-08-19T01:05:51;21.60;85.50
364;DHT22;173;48.718;9.274;2022-08-19T01:08:24;21.60;85.40
364;DHT22;173;48.718;9.274;2022-08-19T01:10:58;21.70;85.90
364;DHT22;173;48.718;9.274;2022-08-19T01:13:34;21.70;85.30
364;DHT22;173;48.718;9.274;2022-08-19T01:16:10;21.70;85.50
364;DHT22;173;48.718;9.274;2022-08-19T01:18:44;21.70;85.80
364;DHT22;173;48.718;9.274;2022-08-19T01:21:34;21.70;86.00
364;DHT22;173;48.718;9.274;2022-08-19T01:24:08;21.70;85.10
364;DHT22;173;48.718;9.274;2022-08-19T01:26:46;21.70;85.20
364;DHT22;173;48.718;9.274;2022-08-19T01:29:18;21.70;84.70
364;DHT22;173;48.718;9.274;2022-08-19T01:31:50;21.60;85.10
364;DHT22;173;48.718;9.274;2022-08-19T01:34:23;21.60;85.20
364;DHT22;173;48.718;9.274;2022-08-19T01:36:56;21.60;85.20
364;DHT22;173;48.718;9.274;2022-08-19T01:39:29;21.60;85.00
364;DHT22;173;48.718;9.274;2022-08-19T01:42:01;21.70;84.90
364;DHT22;173;48.718;9.274;2022-08-19T01:44:35;21.80;85.80
364;DHT22;173;48.718;9.274;2022-08-19T01:47:09;21.80;84.80
364;DHT22;173;48.718;9.274;2022-08-19T01:49:41;21.90;84.40
364;DHT22;173;48.718;9.274;2022-08-19T01:52:13;21.80;84.60
364;DHT22;173;48.718;9.274;2022-08-19T01:54:45;21.80;84.50
364;DHT22;173;48.718;9.274;2022-08-19T01:57:15;21.80;84.60
364;DHT22;173;48.718;9.274;2022-08-19T01:59:47;21.80;84.30
364;DHT22;173;48.718;9.274;2022-08-19T02:02:20;21.90;83.60
364;DHT22;173;48.718;9.274;2022-08-19T02:04:52;21.80;84.10
364;DHT22;173;48.718;9.274;2022-08-19T02:07:26;21.90;84.00
364;DHT22;173;48.718;9.274;2022-08-19T02:10:07;21.80;83.50
364;DHT22;173;48.718;9.274;2022-08-19T02:12:37;21.90;83.70
364;DHT22;173;48.718;9.274;2022-08-19T02:15:11;21.90;83.60
364;DHT22;173;48.718;9.274;2022-08-19T02:17:43;21.90;83.80
364;DHT22;173;48.718;9.274;2022-08-19T02:20:16;21.90;84.10
364;DHT22;173;48.718;9.274;2022-08-19T02:22:50;21.90;83.70
364;DHT22;173;48.718;9.274;2022-08-19T02:25:22;21.80;83.80
364;DHT22;173;48.718;9.274;2022-08-19T02:27:54;21.70;84.00
364;DHT22;173;48.718;9.274;2022-08-19T02:30:26;21.60;83.70
364;DHT22;173;48.718;9.274;2022-08-19T02:32:58;21.60;83.90
364;DHT22;173;48.718;9.274;2022-08-19T02:35:30;21.60;84.50
364;DHT22;173;48.718;9.274;2022-08-19T02:38:05;21.60;84.20
364;DHT22;173;48.718;9.274;2022-08-19T02:41:01;21.60;85.00
364;DHT22;173;48.718;9.274;2022-08-19T02:43:37;21.50;84.90
364;DHT22;173;48.718;9.274;2022-08-19T02:48:54;21.60;85.00
364;DHT22;173;48.718;9.274;2022-08-19T02:51:32;21.60;84.90
364;DHT22;173;48.718;9.274;2022-08-19T02:54:04;21.60;85.00
364;DHT22;173;48.718;9.274;2022-08-19T02:56:41;21.60;85.20
364;DHT22;173;48.718;9.274;2022-08-19T02:59:14;21.50;85.60
364;DHT22;173;48.718;9.274;2022-08-19T03:01:44;21.50;85.50
364;DHT22;173;48.718;9.274;2022-08-19T03:04:17;21.50;85.20
364;DHT22;173;48.718;9.274;2022-08-19T03:06:48;21.40;85.70
364;DHT22;173;48.718;9.274;2022-08-19T03:09:22;21.40;85.80
364;DHT22;173;48.718;9.274;2022-08-19T03:11:53;21.50;85.50
364;DHT22;173;48.718;9.274;2022-08-19T03:16:59;21.50;85.60
364;DHT22;173;48.718;9.274;2022-08-19T03:19:32;21.20;86.30
364;DHT22;173;48.718;9.274;2022-08-19T03:22:05;21.20;86.30
364;DHT22;173;48.718;9.274;2022-08-19T03:24:38;21.20;86.60
364;DHT22;173;48.718;9.274;2022-08-19T03:27:11;21.20;86.60
364;DHT22;173;48.718;9.274;2022-08-19T03:29:45;21.30;86.70
364;DHT22;173;48.718;9.274;2022-08-19T03:32:16;21.30;86.60
364;DHT22;173;48.718;9.274;2022-08-19T03:34:50;21.20;86.80
364;DHT22;173;48.718;9.274;2022-08-19T03:37:22;21.10;86.80
364;DHT22;173;48.718;9.274;2022-08-19T03:39:54;21.00;87.00
364;DHT22;173;48.718;9.274;2022-08-19T03:42:25;21.10;87.20
364;DHT22;173;48.718;9.274;2022-08-19T03:44:57;21.10;87.00
364;DHT22;173;48.718;9.274;2022-08-19T03:47:29;21.00;87.10
364;DHT22;173;48.718;9.274;2022-08-19T03:50:01;21.00;87.40
364;DHT22;173;48.718;9.274;2022-08-19T03:52:34;21.00;87.50
364;DHT22;173;48.718;9.274;2022-08-19T03:55:48;21.10;87.20
364;DHT22;173;48.718;9.274;2022-08-19T03:58:22;21.10;87.10
364;DHT22;173;48.718;9.274;2022-08-19T04:00:57;21.20;87.00
364;DHT22;173;48.718;9.274;2022-08-19T04:03:29;21.10;87.10
364;DHT22;173;48.718;9.274;2022-08-19T04:06:10;21.00;87.30
364;DHT22;173;48.718;9.274;2022-08-19T04:08:50;21.00;87.60
364;DHT22;173;48.718;9.274;2022-08-19T04:11:26;21.00;87.70
364;DHT22;173;48.718;9.274;2022-08-19T04:13:59;20.90;87.60
364;DHT22;173;48.718;9.274;2022-08-19T04:16:31;20.90;88.00
364;DHT22;173;48.718;9.274;2022-08-19T04:19:05;20.90;87.90
364;DHT22;173;48.718;9.274;2022-08-19T04:21:37;21.00;87.80
364;DHT22;173;48.718;9.274;2022-08-19T04:24:11;21.00;87.50
364;DHT22;173;48.718;9.274;2022-08-19T04:26:44;21.00;87.40
364;DHT22;173;48.718;9.274;2022-08-19T04:29:20;21.00;87.60
364;DHT22;173;48.718;9.274;2022-08-19T04:34:33;20.90;87.30
364;DHT22;173;48.718;9.274;2022-08-19T04:37:06;20.90;87.60
364;DHT22;173;48.718;9.274;2022-08-19T04:39:39;20.90;87.80
364;DHT22;173;48.718;9.274;2022-08-19T04:42:29;20.90;87.80
364;DHT22;173;48.718;9.274;2022-08-19T04:45:11;20.80;88.00
364;DHT22;173;48.718;9.274;2022-08-19T04:47:44;20.80;87.70
364;DHT22;173;48.718;9.274;2022-08-19T04:50:16;20.70;87.90
364;DHT22;173;48.718;9.274;2022-08-19T04:52:51;20.70;88.40
364;DHT22;173;48.718;9.274;2022-08-19T04:57:57;20.60;88.40
364;DHT22;173;48.718;9.274;2022-08-19T05:00:30;20.70;88.20
364;DHT22;173;48.718;9.274;2022-08-19T05:03:02;20.80;88.30
364;DHT22;173;48.718;9.274;2022-08-19T05:05:38;20.80;87.90
364;DHT22;173;48.718;9.274;2022-08-19T05:08:09;20.80;87.80
364;DHT22;173;48.718;9.274;2022-08-19T05:10:43;20.90;87.90
364;DHT22;173;48.718;9.274;2022-08-19T05:13:18;20.80;87.90
364;DHT22;173;48.718;9.274;2022-08-19T05:15:58;20.80;88.00
364;DHT22;173;48.718;9.274;2022-08-19T05:18:30;20.70;87.90
364;DHT22;173;48.718;9.274;2022-08-19T05:21:21;20.80;88.30
364;DHT22;173;48.718;9.274;2022-08-19T05:24:13;20.80;88.10
364;DHT22;173;48.718;9.274;2022-08-19T05:26:48;20.90;87.60
364;DHT22;173;48.718;9.274;2022-08-19T05:29:24;20.90;87.80
364;DHT22;173;48.718;9.274;2022-08-19T05:31:57;20.90;87.50
364;DHT22;173;48.718;9.274;2022-08-19T05:37:12;20.90;87.80
364;DHT22;173;48.718;9.274;2022-08-19T05:39:44;21.00;87.70
364;DHT22;173;48.718;9.274;2022-08-19T05:42:17;21.00;87.60
364;DHT22;173;48.718;9.274;2022-08-19T05:44:50;21.00;87.70
364;DHT22;173;48.718;9.274;2022-08-19T05:47:22;20.90;87.50
364;DHT22;173;48.718;9.274;2022-08-19T05:49:53;21.00;87.70
364;DHT22;173;48.718;9.274;2022-08-19T05:52:25;20.90;87.80
364;DHT22;173;48.718;9.274;2022-08-19T05:54:58;20.90;87.90
364;DHT22;173;48.718;9.274;2022-08-19T05:57:30;20.90;88.20
364;DHT22;173;48.718;9.274;2022-08-19T06:00:03;21.00;88.30
364;DHT22;173;48.718;9.274;2022-08-19T06:02:38;21.00;88.00
364;DHT22;173;48.718;9.274;2022-08-19T06:05:11;21.10;87.80
364;DHT22;173;48.718;9.274;2022-08-19T06:07:43;21.10;88.00
364;DHT22;173;48.718;9.274;2022-08-19T06:10:15;21.20;88.70
364;DHT22;173;48.718;9.274;2022-08-19T06:12:49;21.20;88.30
364;DHT22;173;48.718;9.274;2022-08-19T06:15:21;21.10;88.90
364;DHT22;173;48.718;9.274;2022-08-19T06:17:55;21.10;89.50
364;DHT22;173;48.718;9.274;2022-08-19T06:20:28;20.90;89.80
364;DHT22;173;48.718;9.274;2022-08-19T06:23:00;20.90;92.00
364;DHT22;173;48.718;9.274;2022-08-19T06:25:32;20.80;91.30
364;DHT22;173;48.718;9.274;2022-08-19T06:28:06;20.70;91.80
364;DHT22;173;48.718;9.274;2022-08-19T06:30:41;20.70;92.50
364;DHT22;173;48.718;9.274;2022-08-19T06:33:13;20.70;92.70
364;DHT22;173;48.718;9.274;2022-08-19T06:35:45;20.70;92.60
364;DHT22;173;48.718;9.274;2022-08-19T06:38:18;20.70;92.10
364;DHT22;173;48.718;9.274;2022-08-19T06:40:51;20.80;92.70
364;DHT22;173;48.718;9.274;2022-08-19T06:43:32;20.80;92.20
364;DHT22;173;48.718;9.274;2022-08-19T06:46:08;20.90;92.60
364;DHT22;173;48.718;9.274;2022-08-19T06:48:43;21.00;91.80
364;DHT22;173;48.718;9.274;2022-08-19T06:51:14;21.00;91.50
364;DHT22;173;48.718;9.274;2022-08-19T06:53:49;21.00;91.40
364;DHT22;173;48.718;9.274;2022-08-19T06:56:27;21.00;90.90
364;DHT22;173;48.718;9.274;2022-08-19T06:59:06;21.00;90.30
364;DHT22;173;48.718;9.274;2022-08-19T07:01:43;20.90;91.30
364;DHT22;173;48.718;9.274;2022-08-19T07:04:19;20.90;91.40
364;DHT22;173;48.718;9.274;2022-08-19T07:07:09;21.00;91.10
364;DHT22;173;48.718;9.274;2022-08-19T07:09:43;21.00;91.50
364;DHT22;173;48.718;9.274;2022-08-19T07:12:15;21.00;91.20
364;DHT22;173;48.718;9.274;2022-08-19T07:14:47;21.00;91.60
364;DHT22;173;48.718;9.274;2022-08-19T07:17:20;21.00;91.80
364;DHT22;173;48.718;9.274;2022-08-19T07:19:52;21.10;92.00
364;DHT22;173;48.718;9.274;2022-08-19T07:22:24;21.20;93.10
364;DHT22;173;48.718;9.274;2022-08-19T07:24:56;21.00;93.10
364;DHT22;173;48.718;9.274;2022-08-19T07:27:31;20.70;94.50
364;DHT22;173;48.718;9.274;2022-08-19T07:30:03;20.50;96.40
364;DHT22;173;48.718;9.274;2022-08-19T07:32:36;20.30;96.30
364;DHT22;173;48.718;9.274;2022-08-19T07:35:10;20.20;98.00
364;DHT22;173;48.718;9.274;2022-08-19T07:37:42;20.20;98.70
364;DHT22;173;48.718;9.274;2022-08-19T07:40:15;20.20;99.10
364;DHT22;173;48.718;9.274;2022-08-19T07:42:47;20.10;99.30
364;DHT22;173;48.718;9.274;2022-08-19T07:45:19;20.00;99.50
364;DHT22;173;48.718;9.274;2022-08-19T07:47:52;20.00;99.40
364;DHT22;173;48.718;9.274;2022-08-19T07:50:24;20.00;98.90
364;DHT22;173;48.718;9.274;2022-08-19T07:52:56;19.90;99.50
364;DHT22;173;48.718;9.274;2022-08-19T07:55:28;19.90;99.50
364;DHT22;173;48.718;9.274;2022-08-19T07:58:01;19.90;99.50
364;DHT22;173;48.718;9.274;2022-08-19T08:00:32;19.90;99.50
364;DHT22;173;48.718;9.274;2022-08-19T08:03:04;20.00;99.50
364;DHT22;173;48.718;9.274;2022-08-19T08:05:36;20.00;99.50
364;DHT22;173;48.718;9.274;2022-08-19T08:08:26;20.00;99.50
364;DHT22;173;48.718;9.274;2022-08-19T08:11:14;19.90;99.50
364;DHT22;173;48.718;9.274;2022-08-19T08:13:48;19.90;99.50
364;DHT22;173;48.718;9.274;2022-08-19T08:16:20;20.00;99.50
364;DHT22;173;48.718;9.274;2022-08-19T08:18:54;20.10;99.50
364;DHT22;173;48.718;9.274;2022-08-19T08:24:29;19.90;99.50
364;DHT22;173;48.718;9.274;2022-08-19T08:27:03;19.90;99.50
364;DHT22;173;48.718;9.274;2022-08-19T08:33:06;20.00;99.50
364;DHT22;173;48.718;9.274;2022-08-19T08:35:38;20.10;99.50
364;DHT22;173;48.718;9.274;2022-08-19T08:38:11;20.20;99.50
364;DHT22;173;48.718;9.274;2022-08-19T08:41:03;20.10;99.10
364;DHT22;173;48.718;9.274;2022-08-19T08:43:37;20.10;99.50
364;DHT22;173;48.718;9.274;2022-08-19T08:46:13;20.10;99.50
364;DHT22;173;48.718;9.274;2022-08-19T08:52:11;20.30;99.50
364;DHT22;173;48.718;9.274;2022-08-19T08:54:53;20.50;99.50
364;DHT22;173;48.718;9.274;2022-08-19T08:57:34;20.50;99.40
364;DHT22;173;48.718;9.274;2022-08-19T09:00:10;20.60;99.40
364;DHT22;173;48.718;9.274;2022-08-19T09:02:50;20.50;99.40
364;DHT22;173;48.718;9.274;2022-08-19T09:05:25;20.50;99.50
364;DHT22;173;48.718;9.274;2022-08-19T09:08:14;20.30;99.50
364;DHT22;173;48.718;9.274;2022-08-19T09:10:57;20.30;99.50
364;DHT22;173;48.718;9.274;2022-08-19T09:16:27;20.40;99.50
364;DHT22;173;48.718;9.274;2022-08-19T09:19:04;20.50;99.50
364;DHT22;173;48.718;9.274;2022-08-19T09:21:38;20.50;99.40
364;DHT22;173;48.718;9.274;2022-08-19T09:24:10;20.60;98.00
364;DHT22;173;48.718;9.274;2022-08-19T09:26:42;20.70;97.90
364;DHT22;173;48.718;9.274;2022-08-19T09:29:14;20.70;98.20
364;DHT22;173;48.718;9.274;2022-08-19T09:31:48;20.70;97.70
364;DHT22;173;48.718;9.274;2022-08-19T09:36:52;20.80;98.50
364;DHT22;173;48.718;9.274;2022-08-19T09:39:25;20.90;98.10
364;DHT22;173;48.718;9.274;2022-08-19T09:41:58;21.00;97.90
364;DHT22;173;48.718;9.274;2022-08-19T09:44:31;21.00;97.70
364;DHT22;173;48.718;9.274;2022-08-19T09:47:03;21.00;98.10
364;DHT22;173;48.718;9.274;2022-08-19T09:49:35;21.10;98.00
364;DHT22;173;48.718;9.274;2022-08-19T09:52:06;21.10;97.20
364;DHT22;173;48.718;9.274;2022-08-19T09:54:40;21.00;97.00
364;DHT22;173;48.718;9.274;2022-08-19T09:57:12;20.90;97.80
364;DHT22;173;48.718;9.274;2022-08-19T09:59:43;21.00;98.60
364;DHT22;173;48.718;9.274;2022-08-19T10:02:16;20.90;97.80
364;DHT22;173;48.718;9.274;2022-08-19T10:04:48;21.00;98.30
364;DHT22;173;48.718;9.274;2022-08-19T10:07:38;21.10;97.90
364;DHT22;173;48.718;9.274;2022-08-19T10:12:47;21.10;97.30
364;DHT22;173;48.718;9.274;2022-08-19T10:15:19;21.00;98.00
364;DHT22;173;48.718;9.274;2022-08-19T10:17:51;21.10;98.50
364;DHT22;173;48.718;9.274;2022-08-19T10:20:23;21.10;98.40
364;DHT22;173;48.718;9.274;2022-08-19T10:22:57;21.00;97.80
364;DHT22;173;48.718;9.274;2022-08-19T10:25:33;20.90;98.40
364;DHT22;173;48.718;9.274;2022-08-19T10:28:03;21.00;98.70
364;DHT22;173;48.718;9.274;2022-08-19T10:30:35;21.10;98.80
364;DHT22;173;48.718;9.274;2022-08-19T10:33:08;20.90;98.80
364;DHT22;173;48.718;9.274;2022-08-19T10:35:41;20.90;99.50
364;DHT22;173;48.718;9.274;2022-08-19T10:38:14;20.90;99.50
364;DHT22;173;48.718;9.274;2022-08-19T10:41:57;20.90;99.40
364;DHT22;173;48.718;9.274;2022-08-19T10:44:27;20.80;99.50
364;DHT22;173;48.718;9.274;2022-08-19T10:47:01;20.90;99.50
364;DHT22;173;48.718;9.274;2022-08-19T10:49:33;20.90;99.50
364;DHT22;173;48.718;9.274;2022-08-19T10:52:07;20.90;99.50
364;DHT22;173;48.718;9.274;2022-08-19T10:54:56;20.90;99.50
364;DHT22;173;48.718;9.274;2022-08-19T10:57:48;20.90;99.50
364;DHT22;173;48.718;9.274;2022-08-19T11:00:21;20.90;99.50
364;DHT22;173;48.718;9.274;2022-08-19T11:02:54;20.80;99.50
364;DHT22;173;48.718;9.274;2022-08-19T11:05:26;20.80;99.50
364;DHT22;173;48.718;9.274;2022-08-19T14:49:47;19.00;99.50
364;DHT22;173;48.718;9.274;2022-08-19T14:52:19;19.20;99.50
364;DHT22;173;48.718;9.274;2022-08-19T14:54:50;19.40;99.50
364;DHT22;173;48.718;9.274;2022-08-19T14:57:22;19.60;99.50
364;DHT22;173;48.718;9.274;2022-08-19T14:59:53;19.70;99.50
364;DHT22;173;48.718;9.274;2022-08-19T15:02:25;19.90;99.50
364;DHT22;173;48.718;9.274;2022-08-19T15:04:57;20.00;99.50
364;DHT22;173;48.718;9.274;2022-08-19T15:07:30;20.00;99.50
364;DHT22;173;48.718;9.274;2022-08-19T15:10:02;20.10;99.50
364;DHT22;173;48.718;9.274;2022-08-19T15:12:36;20.10;99.50
364;DHT22;173;48.718;9.274;2022-08-19T15:15:12;20.20;99.50
364;DHT22;173;48.718;9.274;2022-08-19T15:17:47;20.20;99.50
364;DHT22;173;48.718;9.274;2022-08-19T15:20:21;20.30;99.50
364;DHT22;173;48.718;9.274;2022-08-19T15:22:53;20.40;99.50
364;DHT22;173;48.718;9.274;2022-08-19T15:25:26;20.50;99.50
364;DHT22;173;48.718;9.274;2022-08-19T15:28:00;20.60;99.50
364;DHT22;173;48.718;9.274;2022-08-19T15:30:31;20.80;99.50
364;DHT22;173;48.718;9.274;2022-08-19T15:33:03;20.80;99.50
364;DHT22;173;48.718;9.274;2022-08-19T15:35:35;21.00;99.50
364;DHT22;173;48.718;9.274;2022-08-19T15:38:08;21.20;99.50
364;DHT22;173;48.718;9.274;2022-08-19T15:40:44;21.30;99.50
364;DHT22;173;48.718;9.274;2022-08-19T15:43:18;21.70;99.50
364;DHT22;173;48.718;9.274;2022-08-19T15:45:50;21.90;99.50
364;DHT22;173;48.718;9.274;2022-08-19T15:48:22;21.90;98.90
364;DHT22;173;48.718;9.274;2022-08-19T15:50:54;21.90;99.20
364;DHT22;173;48.718;9.274;2022-08-19T15:53:26;22.00;98.90
364;DHT22;173;48.718;9.274;2022-08-19T15:55:58;21.90;98.20
364;DHT22;173;48.718;9.274;2022-08-19T15:58:32;21.70;98.00
364;DHT22;173;48.718;9.274;2022-08-19T16:01:22;21.60;98.80
364;DHT22;173;48.718;9.274;2022-08-19T16:04:12;21.30;98.80
364;DHT22;173;48.718;9.274;2022-08-19T16:07:03;21.40;99.50
364;DHT22;173;48.718;9.274;2022-08-19T16:09:35;21.60;99.50
364;DHT22;173;48.718;9.274;2022-08-19T16:12:07;21.70;99.50
364;DHT22;173;48.718;9.274;2022-08-19T16:14:39;21.70;98.00
364;DHT22;173;48.718;9.274;2022-08-19T16:17:11;21.70;98.80
364;DHT22;173;48.718;9.274;2022-08-19T16:19:43;21.70;99.10
364;DHT22;173;48.718;9.274;2022-08-19T16:22:15;21.80;98.70
364;DHT22;173;48.718;9.274;2022-08-19T16:24:49;21.70;98.80
364;DHT22;173;48.718;9.274;2022-08-19T16:27:21;21.60;99.40
364;DHT22;173;48.718;9.274;2022-08-19T16:29:53;21.50;99.50
364;DHT22;173;48.718;9.274;2022-08-19T16:32:24;21.50;99.40
364;DHT22;173;48.718;9.274;2022-08-19T16:34:56;21.60;99.10
364;DHT22;173;48.718;9.274;2022-08-19T16:37:28;21.40;99.30
364;DHT22;173;48.718;9.274;2022-08-19T16:40:00;21.30;99.50
364;DHT22;173;48.718;9.274;2022-08-19T16:42:34;21.40;99.50
364;DHT22;173;48.718;9.274;2022-08-19T16:45:07;21.40;99.50
364;DHT22;173;48.718;9.274;2022-08-19T16:47:39;21.20;99.50
364;DHT22;173;48.718;9.274;2022-08-19T16:50:11;21.20;99.50
364;DHT22;173;48.718;9.274;2022-08-19T16:52:43;21.00;99.50
364;DHT22;173;48.718;9.274;2022-08-19T16:55:16;20.90;99.50
364;DHT22;173;48.718;9.274;2022-08-19T16:57:47;20.80;99.50
364;DHT22;173;48.718;9.274;2022-08-19T17:00:19;20.80;99.50
364;DHT22;173;48.718;9.274;2022-08-19T17:02:51;20.60;99.50
364;DHT22;173;48.718;9.274;2022-08-19T17:05:23;20.50;99.50
364;DHT22;173;48.718;9.274;2022-08-19T17:07:55;20.60;99.50
364;DHT22;173;48.718;9.274;2022-08-19T17:10:28;20.70;99.50
364;DHT22;173;48.718;9.274;2022-08-19T17:13:00;20.70;99.50
364;DHT22;173;48.718;9.274;2022-08-19T17:15:30;20.70;99.50
364;DHT22;173;48.718;9.274;2022-08-19T17:18:03;20.70;99.50
364;DHT22;173;48.718;9.274;2022-08-19T17:20:37;20.80;99.50
364;DHT22;173;48.718;9.274;2022-08-19T17:23:08;20.80;99.50
364;DHT22;173;48.718;9.274;2022-08-19T17:25:41;20.80;99.50
364;DHT22;173;48.718;9.274;2022-08-19T17:28:18;20.70;99.50
364;DHT22;173;48.718;9.274;2022-08-19T17:30:57;20.70;99.50
364;DHT22;173;48.718;9.274;2022-08-19T17:35:58;20.70;99.50
364;DHT22;173;48.718;9.274;2022-08-19T17:38:29;20.70;99.50
364;DHT22;173;48.718;9.274;2022-08-19T17:41:02;20.70;99.50
364;DHT22;173;48.718;9.274;2022-08-19T17:43:35;20.80;99.50
364;DHT22;173;48.718;9.274;2022-08-19T17:46:08;20.70;99.50
364;DHT22;173;48.718;9.274;2022-08-19T17:48:40;20.60;99.50
364;DHT22;173;48.718;9.274;2022-08-19T17:51:24;20.60;99.50
364;DHT22;173;48.718;9.274;2022-08-19T17:54:03;20.60;99.50
364;DHT22;173;48.718;9.274;2022-08-19T17:56:35;20.70;99.50
364;DHT22;173;48.718;9.274;2022-08-19T17:59:09;20.70;99.50
364;DHT22;173;48.718;9.274;2022-08-19T18:01:46;20.70;99.50
364;DHT22;173;48.718;9.274;2022-08-19T18:04:19;20.60;99.50
364;DHT22;173;48.718;9.274;2022-08-19T18:06:53;20.50;99.50
364;DHT22;173;48.718;9.274;2022-08-19T18:09:32;20.50;99.50
364;DHT22;173;48.718;9.274;2022-08-19T18:12:09;20.40;99.50
364;DHT22;173;48.718;9.274;2022-08-19T18:14:43;20.40;99.50
364;DHT22;173;48.718;9.274;2022-08-19T18:17:17;20.50;99.50
364;DHT22;173;48.718;9.274;2022-08-19T18:19:50;20.50;99.50
364;DHT22;173;48.718;9.274;2022-08-19T18:25:07;20.50;99.50
364;DHT22;173;48.718;9.274;2022-08-19T18:27:41;20.60;99.50
364;DHT22;173;48.718;9.274;2022-08-19T18:30:14;20.60;99.50
364;DHT22;173;48.718;9.274;2022-08-19T18:32:47;20.50;99.50
364;DHT22;173;48.718;9.274;2022-08-19T18:35:31;20.50;99.50
364;DHT22;173;48.718;9.274;2022-08-19T18:38:05;20.50;99.50
364;DHT22;173;48.718;9.274;2022-08-19T18:40:39;20.50;99.50
364;DHT22;173;48.718;9.274;2022-08-19T18:43:28;20.50;99.50
364;DHT22;173;48.718;9.274;2022-08-19T18:46:18;20.50;99.50
364;DHT22;173;48.718;9.274;2022-08-19T18:49:10;20.50;99.50
364;DHT22;173;48.718;9.274;2022-08-19T18:51:45;20.50;99.50
364;DHT22;173;48.718;9.274;2022-08-19T18:54:20;20.50;99.50
364;DHT22;173;48.718;9.274;2022-08-19T18:56:53;20.50;99.50
364;DHT22;173;48.718;9.274;2022-08-19T18:59:27;20.40;99.50
364;DHT22;173;48.718;9.274;2022-08-19T19:02:00;20.30;99.50
364;DHT22;173;48.718;9.274;2022-08-19T19:04:35;20.40;99.50
364;DHT22;173;48.718;9.274;2022-08-19T19:07:07;20.30;99.50
364;DHT22;173;48.718;9.274;2022-08-19T19:09:42;20.30;99.50
364;DHT22;173;48.718;9.274;2022-08-19T19:12:16;20.40;99.50
364;DHT22;173;48.718;9.274;2022-08-19T19:14:50;20.40;99.50
364;DHT22;173;48.718;9.274;2022-08-19T19:17:21;20.40;99.50
364;DHT22;173;48.718;9.274;2022-08-19T19:19:55;20.30;99.50
364;DHT22;173;48.718;9.274;2022-08-19T19:22:25;20.30;99.50
364;DHT22;173;48.718;9.274;2022-08-19T19:24:57;20.30;99.50
364;DHT22;173;48.718;9.274;2022-08-19T19:27:29;20.40;99.50
364;DHT22;173;48.718;9.274;2022-08-19T19:29:59;20.30;99.50
364;DHT22;173;48.718;9.274;2022-08-19T19:32:31;20.30;99.50
364;DHT22;173;48.718;9.274;2022-08-19T19:35:06;20.30;99.50
364;DHT22;173;48.718;9.274;2022-08-19T19:37:39;20.20;99.50
364;DHT22;173;48.718;9.274;2022-08-19T19:40:12;20.20;99.50
364;DHT22;173;48.718;9.274;2022-08-19T19:42:44;20.10;99.50
364;DHT22;173;48.718;9.274;2022-08-19T19:45:17;20.00;99.50
364;DHT22;173;48.718;9.274;2022-08-19T19:47:50;20.00;99.50
364;DHT22;173;48.718;9.274;2022-08-19T19:50:25;19.90;99.50
364;DHT22;173;48.718;9.274;2022-08-19T19:52:58;19.90;99.50
364;DHT22;173;48.718;9.274;2022-08-19T19:55:30;20.00;99.50
364;DHT22;173;48.718;9.274;2022-08-19T19:58:03;20.00;99.50
364;DHT22;173;48.718;9.274;2022-08-19T20:00:35;20.00;99.50
364;DHT22;173;48.718;9.274;2022-08-19T20:03:07;20.00;99.50
364;DHT22;173;48.718;9.274;2022-08-19T20:05:39;20.00;99.50
364;DHT22;173;48.718;9.274;2022-08-19T20:08:11;20.00;99.50
364;DHT22;173;48.718;9.274;2022-08-19T20:11:04;20.00;99.50
364;DHT22;173;48.718;9.274;2022-08-19T20:13:36;20.00;99.50
364;DHT22;173;48.718;9.274;2022-08-19T20:16:09;20.00;99.50
364;DHT22;173;48.718;9.274;2022-08-19T20:18:41;20.00;99.50
364;DHT22;173;48.718;9.274;2022-08-19T20:21:14;20.10;99.50
364;DHT22;173;48.718;9.274;2022-08-19T20:23:45;20.10;99.50
364;DHT22;173;48.718;9.274;2022-08-19T20:26:17;20.10;99.50
364;DHT22;173;48.718;9.274;2022-08-19T20:28:50;20.20;99.50
364;DHT22;173;48.718;9.274;2022-08-19T20:31:23;20.20;99.50
364;DHT22;173;48.718;9.274;2022-08-19T20:33:53;20.20;99.50
364;DHT22;173;48.718;9.274;2022-08-19T20:36:25;20.20;99.50
364;DHT22;173;48.718;9.274;2022-08-19T20:38:59;20.30;99.50
364;DHT22;173;48.718;9.274;2022-08-19T20:41:32;20.30;99.50
364;DHT22;173;48.718;9.274;2022-08-19T20:44:06;20.20;99.50
364;DHT22;173;48.718;9.274;2022-08-19T20:46:38;20.20;99.50
364;DHT22;173;48.718;9.274;2022-08-19T20:49:10;20.30;99.50
364;DHT22;173;48.718;9.274;2022-08-19T20:51:43;20.30;99.50
364;DHT22;173;48.718;9.274;2022-08-19T20:54:15;20.30;99.50
364;DHT22;173;48.718;9.274;2022-08-19T20:56:48;20.20;99.50
364;DHT22;173;48.718;9.274;2022-08-19T20:59:20;20.10;99.50
364;DHT22;173;48.718;9.274;2022-08-19T21:01:54;20.10;99.50
364;DHT22;173;48.718;9.274;2022-08-19T21:04:27;20.10;99.50
364;DHT22;173;48.718;9.274;2022-08-19T21:07:00;20.20;99.50
364;DHT22;173;48.718;9.274;2022-08-19T21:09:33;20.10;99.50
364;DHT22;173;48.718;9.274;2022-08-19T21:14:47;20.20;99.50
364;DHT22;173;48.718;9.274;2022-08-19T21:17:17;20.20;99.50
364;DHT22;173;48.718;9.274;2022-08-19T21:19:47;20.20;99.50
364;DHT22;173;48.718;9.274;2022-08-19T21:22:19;20.20;99.50
364;DHT22;173;48.718;9.274;2022-08-19T21:24:51;20.20;99.50
364;DHT22;173;48.718;9.274;2022-08-19T21:27:23;20.10;99.50
364;DHT22;173;48.718;9.274;2022-08-19T21:29:55;20.10;99.50
364;DHT22;173;48.718;9.274;2022-08-19T21:32:27;20.10;99.50
364;DHT22;173;48.718;9.274;2022-08-19T21:34:59;20.20;99.50
364;DHT22;173;48.718;9.274;2022-08-19T21:37:31;20.20;99.50
364;DHT22;173;48.718;9.274;2022-08-19T21:40:04;20.10;99.50
364;DHT22;173;48.718;9.274;2022-08-19T21:42:37;20.10;99.50